sensor_id;sensor_type;location;lat;lon;timestamp;temperature;humidity
81842;DHT22;71284;50.918;7.092;2023-10-31T00:02:17;15.10;62.50
81842;DHT22;71284;50.918;7.092;2023-10-31T00:04:43;14.90;63.60
81842;DHT22;71284;50.918;7.092;2023-10-31T00:07:10;14.90;63.60
81842;DHT22;71284;50.918;7.092;2023-10-31T00:09:36;15.00;63.10
81842;DHT22;71284;50.918;7.092;2023-10-31T00:12:03;15.10;63.50
81842;DHT22;71284;50.918;7.092;2023-10-31T00:14:30;15.10;62.90
81842;DHT22;71284;50.918;7.092;2023-10-31T00:16:57;14.90;64.20
81842;DHT22;71284;50.918;7.092;2023-10-31T00:19:23;15.00;63.10
81842;DHT22;71284;50.918;7.092;2023-10-31T00:21:50;15.00;62.90
81842;DHT22;71284;50.918;7.092;2023-10-31T00:24:16;15.10;63.00
81842;DHT22;71284;50.918;7.092;2023-10-31T00:26:43;15.10;63.50
81842;DHT22;71284;50.918;7.092;2023-10-31T00:29:09;15.20;63.20
81842;DHT22;71284;50.918;7.092;2023-10-31T00:31:36;15.20;63.70
81842;DHT22;71284;50.918;7.092;2023-10-31T00:34:02;15.20;62.70
81842;DHT22;71284;50.918;7.092;2023-10-31T00:36:29;15.20;64.30
81842;DHT22;71284;50.918;7.092;2023-10-31T00:38:56;15.00;64.80
81842;DHT22;71284;50.918;7.092;2023-10-31T00:41:22;15.10;63.50
81842;DHT22;71284;50.918;7.092;2023-10-31T00:43:49;15.10;64.60
81842;DHT22;71284;50.918;7.092;2023-10-31T00:46:15;15.20;63.70
81842;DHT22;71284;50.918;7.092;2023-10-31T00:48:42;15.20;64.00
81842;DHT22;71284;50.918;7.092;2023-10-31T00:51:09;14.90;62.60
81842;DHT22;71284;50.918;7.092;2023-10-31T00:53:35;14.90;63.20
81842;DHT22;71284;50.918;7.092;2023-10-31T00:56:02;14.60;63.90
81842;DHT22;71284;50.918;7.092;2023-10-31T00:58:29;14.30;65.30
81842;DHT22;71284;50.918;7.092;2023-10-31T01:00:55;14.30;65.10
81842;DHT22;71284;50.918;7.092;2023-10-31T01:03:22;14.20;64.60
81842;DHT22;71284;50.918;7.092;2023-10-31T01:05:48;14.10;64.10
81842;DHT22;71284;50.918;7.092;2023-10-31T01:08:15;14.10;64.20
81842;DHT22;71284;50.918;7.092;2023-10-31T01:10:41;14.30;62.50
81842;DHT22;71284;50.918;7.092;2023-10-31T01:13:08;14.20;63.10
81842;DHT22;71284;50.918;7.092;2023-10-31T01:15:35;14.50;61.90
81842;DHT22;71284;50.918;7.092;2023-10-31T01:18:01;14.40;61.70
81842;DHT22;71284;50.918;7.092;2023-10-31T01:20:28;14.40;63.50
81842;DHT22;71284;50.918;7.092;2023-10-31T01:22:54;14.40;62.10
81842;DHT22;71284;50.918;7.092;2023-10-31T01:25:21;14.40;62.00
81842;DHT22;71284;50.918;7.092;2023-10-31T01:27:48;14.40;61.40
81842;DHT22;71284;50.918;7.092;2023-10-31T01:30:14;14.30;61.90
81842;DHT22;71284;50.918;7.092;2023-10-31T01:32:41;14.40;61.60
81842;DHT22;71284;50.918;7.092;2023-10-31T01:35:08;14.50;61.70
81842;DHT22;71284;50.918;7.092;2023-10-31T01:37:34;14.40;62.10
81842;DHT22;71284;50.918;7.092;2023-10-31T01:40:01;14.40;62.50
81842;DHT22;71284;50.918;7.092;2023-10-31T01:42:27;14.30;62.20
81842;DHT22;71284;50.918;7.092;2023-10-31T01:44:54;14.10;62.50
81842;DHT22;71284;50.918;7.092;2023-10-31T01:47:20;14.10;62.50
81842;DHT22;71284;50.918;7.092;2023-10-31T01:49:47;14.30;62.00
81842;DHT22;71284;50.918;7.092;2023-10-31T01:52:14;14.30;62.00
81842;DHT22;71284;50.918;7.092;2023-10-31T01:54:40;14.30;61.60
81842;DHT22;71284;50.918;7.092;2023-10-31T01:57:07;14.30;61.20
81842;DHT22;71284;50.918;7.092;2023-10-31T01:59:33;14.40;61.20
81842;DHT22;71284;50.918;7.092;2023-10-31T02:02:00;14.50;63.20
81842;DHT22;71284;50.918;7.092;2023-10-31T02:04:27;14.50;61.30
81842;DHT22;71284;50.918;7.092;2023-10-31T02:06:53;14.50;62.40
81842;DHT22;71284;50.918;7.092;2023-10-31T02:09:20;14.40;61.60
81842;DHT22;71284;50.918;7.092;2023-10-31T02:11:46;14.50;60.80
81842;DHT22;71284;50.918;7.092;2023-10-31T02:14:13;14.30;61.50
81842;DHT22;71284;50.918;7.092;2023-10-31T02:16:40;14.20;61.70
81842;DHT22;71284;50.918;7.092;2023-10-31T02:19:06;14.20;62.00
81842;DHT22;71284;50.918;7.092;2023-10-31T02:21:33;14.30;62.40
81842;DHT22;71284;50.918;7.092;2023-10-31T02:24:00;14.30;62.10
81842;DHT22;71284;50.918;7.092;2023-10-31T02:26:31;14.40;62.00
81842;DHT22;71284;50.918;7.092;2023-10-31T02:28:57;14.30;61.50
81842;DHT22;71284;50.918;7.092;2023-10-31T02:31:24;14.30;63.70
81842;DHT22;71284;50.918;7.092;2023-10-31T02:33:51;14.30;63.60
81842;DHT22;71284;50.918;7.092;2023-10-31T02:36:17;14.40;62.90
81842;DHT22;71284;50.918;7.092;2023-10-31T02:38:44;14.30;63.40
81842;DHT22;71284;50.918;7.092;2023-10-31T02:41:10;14.30;63.60
81842;DHT22;71284;50.918;7.092;2023-10-31T02:43:37;14.30;63.20
81842;DHT22;71284;50.918;7.092;2023-10-31T02:46:03;14.30;63.50
81842;DHT22;71284;50.918;7.092;2023-10-31T02:48:30;14.30;63.60
81842;DHT22;71284;50.918;7.092;2023-10-31T02:50:57;14.30;62.90
81842;DHT22;71284;50.918;7.092;2023-10-31T02:53:23;14.30;62.90
81842;DHT22;71284;50.918;7.092;2023-10-31T02:55:50;14.20;63.40
81842;DHT22;71284;50.918;7.092;2023-10-31T02:58:16;14.10;63.80
81842;DHT22;71284;50.918;7.092;2023-10-31T03:00:43;14.10;64.10
81842;DHT22;71284;50.918;7.092;2023-10-31T03:03:10;14.00;64.50
81842;DHT22;71284;50.918;7.092;2023-10-31T03:05:36;14.00;64.70
81842;DHT22;71284;50.918;7.092;2023-10-31T03:08:03;13.90;64.60
81842;DHT22;71284;50.918;7.092;2023-10-31T03:10:29;13.90;65.10
81842;DHT22;71284;50.918;7.092;2023-10-31T03:12:56;14.00;64.80
81842;DHT22;71284;50.918;7.092;2023-10-31T03:15:23;14.00;64.20
81842;DHT22;71284;50.918;7.092;2023-10-31T03:17:49;14.00;64.90
81842;DHT22;71284;50.918;7.092;2023-10-31T03:20:16;14.00;64.60
81842;DHT22;71284;50.918;7.092;2023-10-31T03:22:42;14.00;64.20
81842;DHT22;71284;50.918;7.092;2023-10-31T03:25:09;14.10;64.30
81842;DHT22;71284;50.918;7.092;2023-10-31T03:27:36;14.20;64.10
81842;DHT22;71284;50.918;7.092;2023-10-31T03:30:02;14.20;64.40
81842;DHT22;71284;50.918;7.092;2023-10-31T03:32:29;14.10;64.40
81842;DHT22;71284;50.918;7.092;2023-10-31T03:34:55;14.20;64.20
81842;DHT22;71284;50.918;7.092;2023-10-31T03:37:22;14.20;64.50
81842;DHT22;71284;50.918;7.092;2023-10-31T03:39:49;14.30;64.30
81842;DHT22;71284;50.918;7.092;2023-10-31T03:42:15;14.20;64.10
81842;DHT22;71284;50.918;7.092;2023-10-31T03:44:42;14.30;63.50
81842;DHT22;71284;50.918;7.092;2023-10-31T03:47:08;14.20;63.80
81842;DHT22;71284;50.918;7.092;2023-10-31T03:49:39;14.10;64.60
81842;DHT22;71284;50.918;7.092;2023-10-31T03:52:04;14.20;64.40
81842;DHT22;71284;50.918;7.092;2023-10-31T03:54:31;14.10;64.90
81842;DHT22;71284;50.918;7.092;2023-10-31T03:56:58;14.20;65.00
81842;DHT22;71284;50.918;7.092;2023-10-31T03:59:24;14.10;65.20
81842;DHT22;71284;50.918;7.092;2023-10-31T04:01:51;14.10;65.50
81842;DHT22;71284;50.918;7.092;2023-10-31T04:04:17;14.10;65.50
81842;DHT22;71284;50.918;7.092;2023-10-31T04:06:44;14.10;65.30
81842;DHT22;71284;50.918;7.092;2023-10-31T04:09:11;14.10;65.10
81842;DHT22;71284;50.918;7.092;2023-10-31T04:11:38;14.10;65.20
81842;DHT22;71284;50.918;7.092;2023-10-31T04:14:05;14.10;64.90
81842;DHT22;71284;50.918;7.092;2023-10-31T04:16:31;14.20;64.10
81842;DHT22;71284;50.918;7.092;2023-10-31T04:18:58;14.30;64.00
81842;DHT22;71284;50.918;7.092;2023-10-31T04:21:24;14.20;63.40
81842;DHT22;71284;50.918;7.092;2023-10-31T04:23:51;14.20;64.30
81842;DHT22;71284;50.918;7.092;2023-10-31T04:26:17;14.10;64.70
81842;DHT22;71284;50.918;7.092;2023-10-31T04:28:44;14.10;65.00
81842;DHT22;71284;50.918;7.092;2023-10-31T04:31:11;14.20;64.20
81842;DHT22;71284;50.918;7.092;2023-10-31T04:33:37;14.20;63.90
81842;DHT22;71284;50.918;7.092;2023-10-31T04:36:04;14.00;65.00
81842;DHT22;71284;50.918;7.092;2023-10-31T04:38:31;14.20;64.00
81842;DHT22;71284;50.918;7.092;2023-10-31T04:40:57;14.20;63.90
81842;DHT22;71284;50.918;7.092;2023-10-31T04:43:24;14.20;63.20
81842;DHT22;71284;50.918;7.092;2023-10-31T04:45:50;14.30;62.80
81842;DHT22;71284;50.918;7.092;2023-10-31T04:48:17;14.30;62.70
81842;DHT22;71284;50.918;7.092;2023-10-31T04:50:45;14.40;62.00
81842;DHT22;71284;50.918;7.092;2023-10-31T04:53:12;14.40;61.90
81842;DHT22;71284;50.918;7.092;2023-10-31T04:55:38;14.40;63.00
81842;DHT22;71284;50.918;7.092;2023-10-31T04:58:05;14.40;62.70
81842;DHT22;71284;50.918;7.092;2023-10-31T05:00:31;14.30;62.50
81842;DHT22;71284;50.918;7.092;2023-10-31T05:02:58;14.30;63.70
81842;DHT22;71284;50.918;7.092;2023-10-31T05:05:25;14.30;62.40
81842;DHT22;71284;50.918;7.092;2023-10-31T05:07:53;14.40;62.60
81842;DHT22;71284;50.918;7.092;2023-10-31T05:10:19;14.40;61.30
81842;DHT22;71284;50.918;7.092;2023-10-31T05:12:46;14.40;62.60
81842;DHT22;71284;50.918;7.092;2023-10-31T05:15:14;14.40;61.00
81842;DHT22;71284;50.918;7.092;2023-10-31T05:17:40;14.30;62.90
81842;DHT22;71284;50.918;7.092;2023-10-31T05:20:07;14.40;62.60
81842;DHT22;71284;50.918;7.092;2023-10-31T05:22:35;14.40;61.50
81842;DHT22;71284;50.918;7.092;2023-10-31T05:25:01;14.40;60.00
81842;DHT22;71284;50.918;7.092;2023-10-31T05:27:27;14.20;61.00
81842;DHT22;71284;50.918;7.092;2023-10-31T05:29:54;13.90;61.30
81842;DHT22;71284;50.918;7.092;2023-10-31T05:32:20;13.90;61.30
81842;DHT22;71284;50.918;7.092;2023-10-31T05:34:47;14.10;61.10
81842;DHT22;71284;50.918;7.092;2023-10-31T05:37:14;14.20;60.10
81842;DHT22;71284;50.918;7.092;2023-10-31T05:39:41;14.20;60.50
81842;DHT22;71284;50.918;7.092;2023-10-31T05:42:08;14.00;60.60
81842;DHT22;71284;50.918;7.092;2023-10-31T05:44:34;14.10;60.70
81842;DHT22;71284;50.918;7.092;2023-10-31T05:47:01;14.20;61.00
81842;DHT22;71284;50.918;7.092;2023-10-31T05:49:27;14.00;60.50
81842;DHT22;71284;50.918;7.092;2023-10-31T05:51:54;13.90;60.70
81842;DHT22;71284;50.918;7.092;2023-10-31T05:54:21;14.00;60.30
81842;DHT22;71284;50.918;7.092;2023-10-31T05:56:47;14.10;59.80
81842;DHT22;71284;50.918;7.092;2023-10-31T05:59:14;14.20;59.70
81842;DHT22;71284;50.918;7.092;2023-10-31T06:01:40;14.30;59.80
81842;DHT22;71284;50.918;7.092;2023-10-31T06:04:07;14.20;59.30
81842;DHT22;71284;50.918;7.092;2023-10-31T06:06:36;14.30;59.40
81842;DHT22;71284;50.918;7.092;2023-10-31T06:09:00;14.30;59.60
81842;DHT22;71284;50.918;7.092;2023-10-31T06:11:27;14.10;60.10
81842;DHT22;71284;50.918;7.092;2023-10-31T06:13:53;14.20;60.00
81842;DHT22;71284;50.918;7.092;2023-10-31T06:16:20;14.40;59.30
81842;DHT22;71284;50.918;7.092;2023-10-31T06:18:47;14.40;58.70
81842;DHT22;71284;50.918;7.092;2023-10-31T06:21:13;14.30;59.20
81842;DHT22;71284;50.918;7.092;2023-10-31T06:23:41;14.20;59.30
81842;DHT22;71284;50.918;7.092;2023-10-31T06:26:09;14.30;59.20
81842;DHT22;71284;50.918;7.092;2023-10-31T06:28:35;14.50;59.30
81842;DHT22;71284;50.918;7.092;2023-10-31T06:31:10;14.60;58.50
81842;DHT22;71284;50.918;7.092;2023-10-31T06:33:37;14.60;58.10
81842;DHT22;71284;50.918;7.092;2023-10-31T06:36:05;14.70;58.60
81842;DHT22;71284;50.918;7.092;2023-10-31T06:38:32;14.70;58.20
81842;DHT22;71284;50.918;7.092;2023-10-31T06:40:59;14.80;58.30
81842;DHT22;71284;50.918;7.092;2023-10-31T06:43:26;14.70;58.40
81842;DHT22;71284;50.918;7.092;2023-10-31T06:45:52;14.40;58.40
81842;DHT22;71284;50.918;7.092;2023-10-31T06:48:19;14.40;58.60
81842;DHT22;71284;50.918;7.092;2023-10-31T06:50:45;14.40;59.10
81842;DHT22;71284;50.918;7.092;2023-10-31T06:53:12;14.10;59.80
81842;DHT22;71284;50.918;7.092;2023-10-31T06:55:38;13.80;60.40
81842;DHT22;71284;50.918;7.092;2023-10-31T06:58:05;13.90;60.40
81842;DHT22;71284;50.918;7.092;2023-10-31T07:00:32;14.10;59.70
81842;DHT22;71284;50.918;7.092;2023-10-31T07:03:00;14.20;59.50
81842;DHT22;71284;50.918;7.092;2023-10-31T07:05:26;14.20;59.10
81842;DHT22;71284;50.918;7.092;2023-10-31T07:07:53;13.80;59.90
81842;DHT22;71284;50.918;7.092;2023-10-31T07:10:19;13.90;61.10
81842;DHT22;71284;50.918;7.092;2023-10-31T07:12:46;14.10;60.30
81842;DHT22;71284;50.918;7.092;2023-10-31T07:15:14;14.30;59.90
81842;DHT22;71284;50.918;7.092;2023-10-31T07:17:40;14.30;59.60
81842;DHT22;71284;50.918;7.092;2023-10-31T07:20:07;14.20;60.00
81842;DHT22;71284;50.918;7.092;2023-10-31T07:22:34;14.00;60.50
81842;DHT22;71284;50.918;7.092;2023-10-31T07:25:00;13.80;61.30
81842;DHT22;71284;50.918;7.092;2023-10-31T07:27:27;14.00;60.70
81842;DHT22;71284;50.918;7.092;2023-10-31T07:29:53;14.10;60.20
81842;DHT22;71284;50.918;7.092;2023-10-31T07:32:20;14.10;60.60
81842;DHT22;71284;50.918;7.092;2023-10-31T07:34:47;14.10;61.00
81842;DHT22;71284;50.918;7.092;2023-10-31T07:37:13;14.30;59.60
81842;DHT22;71284;50.918;7.092;2023-10-31T07:39:40;14.40;59.50
81842;DHT22;71284;50.918;7.092;2023-10-31T07:42:06;14.30;58.90
81842;DHT22;71284;50.918;7.092;2023-10-31T07:44:33;14.00;60.70
81842;DHT22;71284;50.918;7.092;2023-10-31T07:46:59;13.90;60.60
81842;DHT22;71284;50.918;7.092;2023-10-31T07:49:26;13.90;61.00
81842;DHT22;71284;50.918;7.092;2023-10-31T07:51:53;14.00;60.40
81842;DHT22;71284;50.918;7.092;2023-10-31T07:54:19;14.20;60.10
81842;DHT22;71284;50.918;7.092;2023-10-31T07:56:46;14.20;59.80
81842;DHT22;71284;50.918;7.092;2023-10-31T07:59:12;14.20;59.70
81842;DHT22;71284;50.918;7.092;2023-10-31T08:01:39;14.20;60.10
81842;DHT22;71284;50.918;7.092;2023-10-31T08:04:06;14.30;60.20
81842;DHT22;71284;50.918;7.092;2023-10-31T08:06:32;14.50;58.90
81842;DHT22;71284;50.918;7.092;2023-10-31T08:08:59;14.50;58.60
81842;DHT22;71284;50.918;7.092;2023-10-31T08:11:25;14.60;58.40
81842;DHT22;71284;50.918;7.092;2023-10-31T08:13:52;14.60;58.80
81842;DHT22;71284;50.918;7.092;2023-10-31T08:16:19;14.80;57.90
81842;DHT22;71284;50.918;7.092;2023-10-31T08:18:46;14.60;58.60
81842;DHT22;71284;50.918;7.092;2023-10-31T08:21:12;14.70;58.20
81842;DHT22;71284;50.918;7.092;2023-10-31T08:23:38;14.90;57.60
81842;DHT22;71284;50.918;7.092;2023-10-31T08:26:05;14.90;57.50
81842;DHT22;71284;50.918;7.092;2023-10-31T08:28:32;15.00;58.50
81842;DHT22;71284;50.918;7.092;2023-10-31T08:30:58;14.90;57.40
81842;DHT22;71284;50.918;7.092;2023-10-31T08:33:25;15.10;57.20
81842;DHT22;71284;50.918;7.092;2023-10-31T08:35:51;15.10;57.20
81842;DHT22;71284;50.918;7.092;2023-10-31T08:38:18;15.10;57.10
81842;DHT22;71284;50.918;7.092;2023-10-31T08:40:46;14.90;57.20
81842;DHT22;71284;50.918;7.092;2023-10-31T08:43:13;14.90;57.70
81842;DHT22;71284;50.918;7.092;2023-10-31T08:45:40;15.10;57.70
81842;DHT22;71284;50.918;7.092;2023-10-31T08:48:06;15.10;56.80
81842;DHT22;71284;50.918;7.092;2023-10-31T08:50:33;15.10;57.20
81842;DHT22;71284;50.918;7.092;2023-10-31T08:52:59;15.00;57.00
81842;DHT22;71284;50.918;7.092;2023-10-31T08:55:26;15.10;56.90
81842;DHT22;71284;50.918;7.092;2023-10-31T08:57:52;15.00;56.80
81842;DHT22;71284;50.918;7.092;2023-10-31T09:00:19;15.10;57.80
81842;DHT22;71284;50.918;7.092;2023-10-31T09:02:46;15.10;57.10
81842;DHT22;71284;50.918;7.092;2023-10-31T09:05:12;15.20;56.40
81842;DHT22;71284;50.918;7.092;2023-10-31T09:07:39;15.30;56.50
81842;DHT22;71284;50.918;7.092;2023-10-31T09:10:06;15.40;56.50
81842;DHT22;71284;50.918;7.092;2023-10-31T09:12:32;15.20;56.30
81842;DHT22;71284;50.918;7.092;2023-10-31T09:14:59;15.20;56.40
81842;DHT22;71284;50.918;7.092;2023-10-31T09:17:26;15.30;56.40
81842;DHT22;71284;50.918;7.092;2023-10-31T09:19:52;15.30;57.30
81842;DHT22;71284;50.918;7.092;2023-10-31T09:22:19;15.20;56.70
81842;DHT22;71284;50.918;7.092;2023-10-31T09:24:45;15.30;56.30
81842;DHT22;71284;50.918;7.092;2023-10-31T09:27:12;15.30;55.60
81842;DHT22;71284;50.918;7.092;2023-10-31T09:29:39;15.20;56.40
81842;DHT22;71284;50.918;7.092;2023-10-31T09:32:06;15.40;56.70
81842;DHT22;71284;50.918;7.092;2023-10-31T09:34:32;15.50;56.40
81842;DHT22;71284;50.918;7.092;2023-10-31T09:36:59;15.60;56.40
81842;DHT22;71284;50.918;7.092;2023-10-31T09:39:26;15.70;56.60
81842;DHT22;71284;50.918;7.092;2023-10-31T09:41:52;15.70;56.00
81842;DHT22;71284;50.918;7.092;2023-10-31T09:44:19;15.70;56.10
81842;DHT22;71284;50.918;7.092;2023-10-31T09:46:45;15.60;56.10
81842;DHT22;71284;50.918;7.092;2023-10-31T09:49:12;15.40;55.70
81842;DHT22;71284;50.918;7.092;2023-10-31T09:51:39;15.30;56.00
81842;DHT22;71284;50.918;7.092;2023-10-31T09:54:05;15.40;55.90
81842;DHT22;71284;50.918;7.092;2023-10-31T09:56:32;15.40;54.50
81842;DHT22;71284;50.918;7.092;2023-10-31T09:58:58;15.40;55.10
81842;DHT22;71284;50.918;7.092;2023-10-31T10:01:25;15.40;54.40
81842;DHT22;71284;50.918;7.092;2023-10-31T10:03:52;15.40;54.50
81842;DHT22;71284;50.918;7.092;2023-10-31T10:06:18;15.40;54.30
81842;DHT22;71284;50.918;7.092;2023-10-31T10:08:45;15.50;54.30
81842;DHT22;71284;50.918;7.092;2023-10-31T10:11:11;15.50;54.00
81842;DHT22;71284;50.918;7.092;2023-10-31T10:13:38;15.60;54.30
81842;DHT22;71284;50.918;7.092;2023-10-31T10:16:05;15.80;53.80
81842;DHT22;71284;50.918;7.092;2023-10-31T10:18:32;15.80;52.50
81842;DHT22;71284;50.918;7.092;2023-10-31T10:20:59;15.90;53.00
81842;DHT22;71284;50.918;7.092;2023-10-31T10:23:25;16.00;52.90
81842;DHT22;71284;50.918;7.092;2023-10-31T10:25:52;16.30;53.60
81842;DHT22;71284;50.918;7.092;2023-10-31T10:28:18;16.40;52.40
81842;DHT22;71284;50.918;7.092;2023-10-31T10:30:47;16.40;51.40
81842;DHT22;71284;50.918;7.092;2023-10-31T10:33:14;16.50;52.10
81842;DHT22;71284;50.918;7.092;2023-10-31T10:35:41;16.50;51.30
81842;DHT22;71284;50.918;7.092;2023-10-31T10:38:11;16.60;52.20
81842;DHT22;71284;50.918;7.092;2023-10-31T10:40:37;16.40;50.60
81842;DHT22;71284;50.918;7.092;2023-10-31T10:43:03;16.50;51.00
81842;DHT22;71284;50.918;7.092;2023-10-31T10:45:30;16.50;50.40
81842;DHT22;71284;50.918;7.092;2023-10-31T10:47:56;16.40;51.20
81842;DHT22;71284;50.918;7.092;2023-10-31T10:50:23;16.40;51.30
81842;DHT22;71284;50.918;7.092;2023-10-31T10:55:47;16.20;50.20
81842;DHT22;71284;50.918;7.092;2023-10-31T11:00:58;16.50;50.50
81842;DHT22;71284;50.918;7.092;2023-10-31T11:03:24;16.50;49.50
81842;DHT22;71284;50.918;7.092;2023-10-31T11:05:51;16.30;49.70
81842;DHT22;71284;50.918;7.092;2023-10-31T11:08:18;16.50;48.70
81842;DHT22;71284;50.918;7.092;2023-10-31T11:10:44;16.60;49.30
81842;DHT22;71284;50.918;7.092;2023-10-31T11:13:11;16.80;49.00
81842;DHT22;71284;50.918;7.092;2023-10-31T11:15:37;16.70;48.70
81842;DHT22;71284;50.918;7.092;2023-10-31T11:18:04;16.80;49.10
81842;DHT22;71284;50.918;7.092;2023-10-31T11:20:30;16.60;48.90
81842;DHT22;71284;50.918;7.092;2023-10-31T11:22:57;16.50;49.70
81842;DHT22;71284;50.918;7.092;2023-10-31T11:25:24;16.60;48.90
81842;DHT22;71284;50.918;7.092;2023-10-31T11:27:51;16.70;48.50
81842;DHT22;71284;50.918;7.092;2023-10-31T11:30:21;16.70;49.20
81842;DHT22;71284;50.918;7.092;2023-10-31T11:32:51;16.80;49.20
81842;DHT22;71284;50.918;7.092;2023-10-31T11:35:16;17.00;48.40
81842;DHT22;71284;50.918;7.092;2023-10-31T11:37:42;17.10;48.70
81842;DHT22;71284;50.918;7.092;2023-10-31T11:40:21;16.70;48.90
81842;DHT22;71284;50.918;7.092;2023-10-31T11:42:51;16.70;48.70
81842;DHT22;71284;50.918;7.092;2023-10-31T11:45:26;16.80;48.80
81842;DHT22;71284;50.918;7.092;2023-10-31T11:47:52;16.80;48.00
81842;DHT22;71284;50.918;7.092;2023-10-31T11:50:18;17.00;49.50
81842;DHT22;71284;50.918;7.092;2023-10-31T11:52:45;16.90;49.30
81842;DHT22;71284;50.918;7.092;2023-10-31T11:55:12;17.00;48.70
81842;DHT22;71284;50.918;7.092;2023-10-31T11:57:39;17.10;49.50
81842;DHT22;71284;50.918;7.092;2023-10-31T12:00:05;17.00;49.10
81842;DHT22;71284;50.918;7.092;2023-10-31T12:02:32;17.10;49.40
81842;DHT22;71284;50.918;7.092;2023-10-31T12:05:08;17.30;49.60
81842;DHT22;71284;50.918;7.092;2023-10-31T12:07:42;17.40;49.00
81842;DHT22;71284;50.918;7.092;2023-10-31T12:10:08;17.50;48.70
81842;DHT22;71284;50.918;7.092;2023-10-31T12:12:35;17.50;48.40
81842;DHT22;71284;50.918;7.092;2023-10-31T12:15:08;17.40;48.80
81842;DHT22;71284;50.918;7.092;2023-10-31T12:17:35;17.40;48.00
81842;DHT22;71284;50.918;7.092;2023-10-31T12:20:03;17.20;49.50
81842;DHT22;71284;50.918;7.092;2023-10-31T12:22:29;17.40;48.70
81842;DHT22;71284;50.918;7.092;2023-10-31T12:25:00;17.50;48.10
81842;DHT22;71284;50.918;7.092;2023-10-31T12:27:41;17.70;48.40
81842;DHT22;71284;50.918;7.092;2023-10-31T12:30:00;17.80;48.10
81842;DHT22;71284;50.918;7.092;2023-10-31T12:32:27;17.70;48.00
81842;DHT22;71284;50.918;7.092;2023-10-31T12:34:53;17.80;47.50
81842;DHT22;71284;50.918;7.092;2023-10-31T12:37:20;17.80;48.20
81842;DHT22;71284;50.918;7.092;2023-10-31T12:39:46;17.90;47.50
81842;DHT22;71284;50.918;7.092;2023-10-31T12:42:13;18.10;48.00
81842;DHT22;71284;50.918;7.092;2023-10-31T12:44:39;18.10;47.70
81842;DHT22;71284;50.918;7.092;2023-10-31T12:47:07;17.50;48.30
81842;DHT22;71284;50.918;7.092;2023-10-31T12:49:33;17.60;48.50
81842;DHT22;71284;50.918;7.092;2023-10-31T12:52:02;17.80;48.10
81842;DHT22;71284;50.918;7.092;2023-10-31T12:54:28;18.50;46.80
81842;DHT22;71284;50.918;7.092;2023-10-31T12:56:57;19.60;44.70
81842;DHT22;71284;50.918;7.092;2023-10-31T12:59:21;20.70;40.40
81842;DHT22;71284;50.918;7.092;2023-10-31T13:01:48;20.80;42.20
81842;DHT22;71284;50.918;7.092;2023-10-31T13:04:23;20.70;42.10
81842;DHT22;71284;50.918;7.092;2023-10-31T13:06:41;20.60;42.20
81842;DHT22;71284;50.918;7.092;2023-10-31T13:09:07;20.60;41.40
81842;DHT22;71284;50.918;7.092;2023-10-31T13:11:34;20.70;41.70
81842;DHT22;71284;50.918;7.092;2023-10-31T13:14:01;20.60;42.90
81842;DHT22;71284;50.918;7.092;2023-10-31T13:16:27;20.10;42.00
81842;DHT22;71284;50.918;7.092;2023-10-31T13:18:54;19.60;43.60
81842;DHT22;71284;50.918;7.092;2023-10-31T13:21:21;19.70;43.50
81842;DHT22;71284;50.918;7.092;2023-10-31T13:23:48;19.70;43.40
81842;DHT22;71284;50.918;7.092;2023-10-31T13:26:14;20.10;43.10
81842;DHT22;71284;50.918;7.092;2023-10-31T13:28:41;21.50;40.90
81842;DHT22;71284;50.918;7.092;2023-10-31T13:31:08;22.70;39.30
81842;DHT22;71284;50.918;7.092;2023-10-31T13:33:34;23.30;37.70
81842;DHT22;71284;50.918;7.092;2023-10-31T13:36:01;23.20;36.90
81842;DHT22;71284;50.918;7.092;2023-10-31T13:38:27;23.60;36.90
81842;DHT22;71284;50.918;7.092;2023-10-31T13:40:54;24.40;35.20
81842;DHT22;71284;50.918;7.092;2023-10-31T13:43:20;24.40;34.20
81842;DHT22;71284;50.918;7.092;2023-10-31T13:45:47;23.10;37.50
81842;DHT22;71284;50.918;7.092;2023-10-31T13:48:14;22.40;37.70
81842;DHT22;71284;50.918;7.092;2023-10-31T13:50:40;22.20;38.50
81842;DHT22;71284;50.918;7.092;2023-10-31T13:53:07;21.60;38.30
81842;DHT22;71284;50.918;7.092;2023-10-31T13:55:34;21.00;39.60
81842;DHT22;71284;50.918;7.092;2023-10-31T13:58:01;20.50;41.10
81842;DHT22;71284;50.918;7.092;2023-10-31T14:00:27;19.90;41.00
81842;DHT22;71284;50.918;7.092;2023-10-31T14:02:54;19.50;42.30
81842;DHT22;71284;50.918;7.092;2023-10-31T14:05:21;19.20;43.70
81842;DHT22;71284;50.918;7.092;2023-10-31T14:07:47;18.80;44.20
81842;DHT22;71284;50.918;7.092;2023-10-31T14:10:14;18.80;45.10
81842;DHT22;71284;50.918;7.092;2023-10-31T14:12:40;18.60;43.80
81842;DHT22;71284;50.918;7.092;2023-10-31T14:15:07;18.60;44.20
81842;DHT22;71284;50.918;7.092;2023-10-31T14:17:34;18.40;44.40
81842;DHT22;71284;50.918;7.092;2023-10-31T14:20:00;18.40;44.60
81842;DHT22;71284;50.918;7.092;2023-10-31T14:22:27;18.30;45.00
81842;DHT22;71284;50.918;7.092;2023-10-31T14:24:54;18.10;45.70
81842;DHT22;71284;50.918;7.092;2023-10-31T14:27:20;18.00;45.70
81842;DHT22;71284;50.918;7.092;2023-10-31T14:29:47;18.10;47.00
81842;DHT22;71284;50.918;7.092;2023-10-31T14:32:13;17.90;46.20
81842;DHT22;71284;50.918;7.092;2023-10-31T14:34:40;18.10;46.00
81842;DHT22;71284;50.918;7.092;2023-10-31T14:37:06;17.80;46.40
81842;DHT22;71284;50.918;7.092;2023-10-31T14:39:33;17.90;46.40
81842;DHT22;71284;50.918;7.092;2023-10-31T14:42:00;18.00;46.80
81842;DHT22;71284;50.918;7.092;2023-10-31T14:44:26;17.80;46.70
81842;DHT22;71284;50.918;7.092;2023-10-31T14:46:53;17.90;47.70
81842;DHT22;71284;50.918;7.092;2023-10-31T14:49:19;17.90;46.30
81842;DHT22;71284;50.918;7.092;2023-10-31T14:51:46;18.00;46.10
81842;DHT22;71284;50.918;7.092;2023-10-31T14:54:13;18.00;47.90
81842;DHT22;71284;50.918;7.092;2023-10-31T14:56:39;17.90;49.60
81842;DHT22;71284;50.918;7.092;2023-10-31T14:59:07;17.90;47.00
81842;DHT22;71284;50.918;7.092;2023-10-31T15:01:33;17.90;47.10
81842;DHT22;71284;50.918;7.092;2023-10-31T15:04:00;17.90;47.20
81842;DHT22;71284;50.918;7.092;2023-10-31T15:06:26;18.00;47.10
81842;DHT22;71284;50.918;7.092;2023-10-31T15:08:53;18.10;48.20
81842;DHT22;71284;50.918;7.092;2023-10-31T15:11:20;18.10;49.30
81842;DHT22;71284;50.918;7.092;2023-10-31T15:13:46;18.10;47.90
81842;DHT22;71284;50.918;7.092;2023-10-31T15:16:13;18.10;46.60
81842;DHT22;71284;50.918;7.092;2023-10-31T15:18:39;18.00;47.60
81842;DHT22;71284;50.918;7.092;2023-10-31T15:21:06;17.90;47.60
81842;DHT22;71284;50.918;7.092;2023-10-31T15:23:32;17.60;48.00
81842;DHT22;71284;50.918;7.092;2023-10-31T15:25:59;17.70;48.20
81842;DHT22;71284;50.918;7.092;2023-10-31T15:28:26;17.70;48.40
81842;DHT22;71284;50.918;7.092;2023-10-31T15:30:52;17.60;48.40
81842;DHT22;71284;50.918;7.092;2023-10-31T15:33:19;17.40;49.30